Airport View

Enter AWOS ICAO identifier for current METAR.

ex. KFNL

KRGK 212336Z AUTO 21006G14KT 10SM CLR 26/18 A2976 RMK AO2 LTG DSNT NW

21 Sep 2019 23:58

Frequency: 119.25

Phone: 715-594-3763

Other Area AWOS: KSYN - KSGS - K21D - KLVN